Aktualne dane pomiarowe

Uwaga, wersja testowa! Automatyczne pobieranie danych za pomocą narzędzi lub skryptów to umożliwiających jest zabronione.

Dane meteo z obszaru Polski uzyskane na podstawie depesz SYNOP pobieranych co godzinę z NWS. Najedź myszką na symbol przedstawiony w tabeli, aby uzyskać informacje co do jego znaczenia. Prosimy pamiętać, że to testowa wersja strony, która jeszcze nie jest ukończona. Stworzono również jest krótki FAQ dotyczący korzystania z tej podstrony Anomalie temperatury w chwili obecnej odniesione są do okresu referencyjnego 1951-2016. Okres ten będzie później zmieniony na 1981-2010. Kliknij ikonę aby pobrać plik CSV. Kliknij ikonę aby wygenerować mapę synoptyczną dla danego terminu.

Wybierz Datę:    

        

Radom (12485)

Dane terminowe dla wybranej stacji. Kliknij datę, aby otrzymać dane z tego terminu dla wszystkich stacji.

TemperaturaZachmurzenieWiatrCiśnienieOpadyPogoda
 Data t td wb tx tn tg rh  Nt Nl Cl Cm Ch ws wd g1 g2 wx mslp ppp ch 24h 12h t ww ww w1 w2  
2019-07-04 23:00:00 12.3 6.4 8.8--- 6710.0wx-wx2wx---1016.7 994.6 -0.9---------
2019-07-04 22:00:00 13.4 6.5 9.4--- 6310.0wx-wx2wx---1017.0 994.9 -0.8---------
2019-07-04 21:00:00 14.4 6.5 9.9--- 5910.0wx-wx1wx---1017.3 995.3 -0.4---------
2019-07-04 20:00:00 15.2 6.0 10.0--- 5410.0wx-wx1wx---1017.4 995.5 -0.4---------
2019-07-04 19:00:00 18.8 3.4 10.8--- 3610.0wx-wx1wx---1017.4 995.7 -0.5---------
2019-07-04 18:00:00 20.2 3.5 11.5--- 3310.0wx-wx3wx---1017.4 995.8 -0.8---------
2019-07-04 17:00:00 21.1 2.9 11.7--- 3010.0wx-wxwx6wx---1017.4 995.9 -1.1---------
2019-07-04 16:00:00 21.5 3.2 12.0--- 3010.0wxwxwx6wx---1017.8 996.3 -1.1---------
2019-07-04 15:00:00 21.5 3.7 12.1--- 3110.0wxwxwx7wx---1018.1 996.6 -1.2---------
2019-07-04 14:00:00 21.2 4.3 12.2--- 3310.0wxwxwx5wx---1018.9 997.4 -0.9---------
2019-07-04 13:00:00 21.2 4.3 12.2--- 3310.0wxwxwx6wx---1018.9 997.4 -0.9---------
2019-07-04 12:00:00 20.1 2.9 11.2--- 3210.0wxwxwx6wx---1019.4 997.8 -0.6---------
2019-07-04 11:00:00 20.4 3.6 11.6--- 3310.0wxwxwx6wx---1019.7 998.1 -0.7---------
2019-07-04 10:00:00 19.3 3.9 11.2--- 3610.0wxwxwx5wx---1020.0 998.3 -0.7---------
2019-07-04 09:00:00 18.9 3.5 10.9--- 3610.0wxwxwx5wx---1020.1 998.4 -0.7---------
2019-07-04 08:00:00 17.7 4.0 10.5--- 4010.0wxwxwx4wx---1020.6 998.8 -0.2---------
2019-07-04 07:00:00 17.4 5.7 11.0--- 4610.0wxwxwxwx4wx---1020.8 999.0 0.1---------
2019-07-04 06:00:00 15.8 5.1 10.0--- 4910.0wx-wx2wx---1021.1 999.1 0.2---------
2019-07-04 05:00:00 14.2 7.3 10.1--- 6310.0wx-wx3wx---1021.1 999.0 0.2---------
2019-07-04 04:00:00 11.1 7.6 8.9--- 7910.0wx-wx2wx---1021.4 999.1 0.5---------
2019-07-04 03:00:00 9.2 5.8 7.1--- 7910.0wx-wx3wx---1021.4 998.9 0.3---------
2019-07-04 02:00:00 9.4 5.8 7.2--- 7810.0wx-2wx---1021.3 998.8 0.3---------
2019-07-04 01:00:00 9.7 5.7 7.3--- 7610.0wx-2wx---1021.0 998.6 0.2---------
2019-07-04 00:00:00 11.8 5.2 8.0--- 6410.0wx-wx2wx---1020.9 998.6 0.5---------
2019-07-03 23:00:00 12.8 5.2 8.5--- 6010.0wx-wx2wx---1020.7 998.5 0.8---------
2019-07-03 22:00:00 14.4 4.4 9.0--- 5110.0wx-wx3wx---1020.5 998.4 1.2---------
2019-07-03 21:00:00 15.8 3.9 9.5--- 4510.0wx-wx2wx---1020.0 998.1 1.0---------
2019-07-03 20:00:00 16.8 3.8 10.0--- 4210.0wx-wx2wx---1019.6 997.7 0.5---------
2019-07-03 19:00:00 17.4 3.3 10.1--- 3910.0wx-wx2wx---1019.0 997.2 0.1---------
2019-07-03 18:00:00 18.2 3.3 10.5--- 3710.0wx-wx3wx---1018.8 997.1 0.2---------
2019-07-03 17:00:00 18.8 2.2 10.4--- 3310.0wxwxwx4wx---1018.9 997.2 0.1---------
2019-07-03 16:00:00 19.8 2.2 10.8--- 3110.0wxwxwx6wx---1018.7 997.1 0.1---------
2019-07-03 15:00:00 20.0 2.4 11.0--- 3110.0wxwxwx6wx---1018.5 996.9 0.0---------
2019-07-03 14:00:00 19.9 3.2 11.2--- 3310.0wxwxwx6wx---1018.7 997.1 0.1---------
2019-07-03 13:00:00 20.6 2.9 11.4--- 3110.0wxwxwx6wx11--1018.6 997.0 0.1---------
2019-07-03 12:00:00 19.9 2.8 11.1--- 3210.0wxwxwx5wx---1018.4 996.8 -0.3---------
2019-07-03 11:00:00 20.0 4.1 11.6--- 3510.0wxwxwx6wx---1018.5 996.9 -0.1---------
2019-07-03 10:00:00 19.0 4.4 11.2--- 3810.0wxwxwx6wx---1018.6 996.9 0.1---------
2019-07-03 09:00:00 18.1 6.0 11.4--- 4510.0wxwxwx5wx---1018.7 997.0 0.1---------
2019-07-03 08:00:00 17.4 4.7 10.6--- 4310.0wxwxwx5wx---1018.8 997.0 0.4---------
2019-07-03 07:00:00 16.6 5.9 10.7--- 4910.0wxwxwx3wx---1018.7 996.8 0.4---------
2019-07-03 06:00:00 16.2 6.4 10.7--- 5210.0wxwxwx4wx---1018.7 996.8 0.4---------
2019-07-03 05:00:00 15.2 7.4 10.7--- 6010.0wxwxwx4wx---1018.7 996.7 0.7---------
2019-07-03 04:00:00 14.4 7.7 10.4--- 6410.0wxwxwxwx2wx---1018.4 996.4 0.8---------
2019-07-03 03:00:00 13.9 7.0 9.9--- 6310.0wxwxwx2wx---1018.5 996.4 1.0---------
2019-07-03 02:00:00 14.6 6.9 10.1--- 6010.0wxwxwx2wx---1018.0 996.0 1.0---------
2019-07-03 01:00:00 14.5 7.3 10.3--- 6210.0wx-wxwx2wx---1017.8 995.8 0.8---------
2019-07-03 00:00:00 15.4 6.9 10.5--- 5710.0wx-wxwx2wx---1017.3 995.4 0.7---------
1.5 ms

 

Print Friendly, PDF & Email